sensor_id;sensor_type;location;lat;lon;timestamp;P1;durP1;ratioP1;P2;durP2;ratioP2
10884;SDS011;5495;53.252;10.390;2023-03-01T02:01:52;7.27;;;4.13;;
10884;SDS011;5495;53.252;10.390;2023-03-01T02:05:06;10.50;;;5.10;;
10884;SDS011;5495;53.252;10.390;2023-03-01T02:08:45;9.53;;;5.37;;
10884;SDS011;5495;53.252;10.390;2023-03-01T02:17:58;11.77;;;5.50;;
10884;SDS011;5495;53.252;10.390;2023-03-01T02:27:19;16.03;;;6.23;;
10884;SDS011;5495;53.252;10.390;2023-03-01T02:36:52;12.47;;;6.43;;
10884;SDS011;5495;53.252;10.390;2023-03-01T02:43:33;13.03;;;6.30;;
10884;SDS011;5495;53.252;10.390;2023-03-01T02:56:27;10.43;;;5.80;;
10884;SDS011;5495;53.252;10.390;2023-03-01T03:02:55;10.47;;;5.47;;
10884;SDS011;5495;53.252;10.390;2023-03-01T03:08:50;9.90;;;5.27;;
10884;SDS011;5495;53.252;10.390;2023-03-01T03:15:12;8.70;;;4.50;;
10884;SDS011;5495;53.252;10.390;2023-03-01T03:22:32;8.97;;;4.63;;
10884;SDS011;5495;53.252;10.390;2023-03-01T03:24:14;6.67;;;4.20;;
10884;SDS011;5495;53.252;10.390;2023-03-01T03:27:02;9.70;;;4.57;;
10884;SDS011;5495;53.252;10.390;2023-03-01T03:33:16;7.53;;;4.33;;
10884;SDS011;5495;53.252;10.390;2023-03-01T03:43:35;8.77;;;4.70;;
10884;SDS011;5495;53.252;10.390;2023-03-01T03:47:21;8.03;;;3.90;;
10884;SDS011;5495;53.252;10.390;2023-03-01T03:50:04;5.87;;;4.10;;
10884;SDS011;5495;53.252;10.390;2023-03-01T03:56:01;6.13;;;4.13;;
10884;SDS011;5495;53.252;10.390;2023-03-01T03:58:53;8.60;;;4.17;;
10884;SDS011;5495;53.252;10.390;2023-03-01T04:01:40;6.93;;;4.33;;
10884;SDS011;5495;53.252;10.390;2023-03-01T04:04:28;7.70;;;4.03;;
10884;SDS011;5495;53.252;10.390;2023-03-01T04:24:38;5.57;;;3.80;;
10884;SDS011;5495;53.252;10.390;2023-03-01T04:28:06;6.67;;;3.80;;
10884;SDS011;5495;53.252;10.390;2023-03-01T04:31:01;7.00;;;4.10;;
10884;SDS011;5495;53.252;10.390;2023-03-01T04:37:18;5.80;;;3.87;;
10884;SDS011;5495;53.252;10.390;2023-03-01T04:40:00;6.13;;;4.03;;
10884;SDS011;5495;53.252;10.390;2023-03-01T04:42:46;5.87;;;3.87;;
10884;SDS011;5495;53.252;10.390;2023-03-01T04:45:24;9.30;;;5.10;;
10884;SDS011;5495;53.252;10.390;2023-03-01T04:47:55;8.23;;;4.53;;
10884;SDS011;5495;53.252;10.390;2023-03-01T04:54:25;6.53;;;4.43;;
10884;SDS011;5495;53.252;10.390;2023-03-01T04:57:27;6.30;;;4.20;;
10884;SDS011;5495;53.252;10.390;2023-03-01T05:00:09;7.60;;;4.20;;
10884;SDS011;5495;53.252;10.390;2023-03-01T05:03:24;7.23;;;4.10;;
10884;SDS011;5495;53.252;10.390;2023-03-01T05:06:15;7.30;;;4.33;;
10884;SDS011;5495;53.252;10.390;2023-03-01T05:08:54;7.53;;;4.23;;
10884;SDS011;5495;53.252;10.390;2023-03-01T05:11:28;8.07;;;3.50;;
10884;SDS011;5495;53.252;10.390;2023-03-01T05:23:05;7.83;;;4.23;;
10884;SDS011;5495;53.252;10.390;2023-03-01T05:25:59;5.73;;;3.80;;
10884;SDS011;5495;53.252;10.390;2023-03-01T05:28:35;6.17;;;4.00;;
10884;SDS011;5495;53.252;10.390;2023-03-01T05:31:06;5.30;;;3.63;;
10884;SDS011;5495;53.252;10.390;2023-03-01T05:33:51;7.27;;;4.17;;
10884;SDS011;5495;53.252;10.390;2023-03-01T05:36:38;7.30;;;3.90;;
10884;SDS011;5495;53.252;10.390;2023-03-01T05:39:24;6.77;;;3.90;;
10884;SDS011;5495;53.252;10.390;2023-03-01T05:42:11;4.47;;;3.33;;
10884;SDS011;5495;53.252;10.390;2023-03-01T05:45:11;6.33;;;3.63;;
10884;SDS011;5495;53.252;10.390;2023-03-01T05:48:11;7.83;;;4.00;;
10884;SDS011;5495;53.252;10.390;2023-03-01T05:50:47;6.07;;;4.00;;
10884;SDS011;5495;53.252;10.390;2023-03-01T05:53:32;8.97;;;4.30;;
10884;SDS011;5495;53.252;10.390;2023-03-01T05:56:29;7.60;;;3.80;;
10884;SDS011;5495;53.252;10.390;2023-03-01T05:59:16;6.90;;;4.20;;
10884;SDS011;5495;53.252;10.390;2023-03-01T06:02:03;8.10;;;4.33;;
10884;SDS011;5495;53.252;10.390;2023-03-01T06:04:38;5.73;;;3.90;;
10884;SDS011;5495;53.252;10.390;2023-03-01T06:20:52;6.50;;;3.90;;
10884;SDS011;5495;53.252;10.390;2023-03-01T06:27:17;9.43;;;4.40;;
10884;SDS011;5495;53.252;10.390;2023-03-01T06:29:47;6.40;;;3.90;;
10884;SDS011;5495;53.252;10.390;2023-03-01T06:32:27;7.43;;;4.37;;
10884;SDS011;5495;53.252;10.390;2023-03-01T06:35:21;5.90;;;3.13;;
10884;SDS011;5495;53.252;10.390;2023-03-01T06:42:05;4.80;;;3.20;;
10884;SDS011;5495;53.252;10.390;2023-03-01T06:48:16;4.77;;;2.90;;
10884;SDS011;5495;53.252;10.390;2023-03-01T06:51:25;3.80;;;3.03;;
10884;SDS011;5495;53.252;10.390;2023-03-01T06:54:38;6.17;;;2.47;;
10884;SDS011;5495;53.252;10.390;2023-03-01T06:57:53;5.60;;;2.57;;
10884;SDS011;5495;53.252;10.390;2023-03-01T07:07:42;3.77;;;2.47;;
10884;SDS011;5495;53.252;10.390;2023-03-01T07:10:30;4.03;;;2.93;;
10884;SDS011;5495;53.252;10.390;2023-03-01T07:20:14;5.57;;;3.30;;
10884;SDS011;5495;53.252;10.390;2023-03-01T07:22:42;7.87;;;3.50;;
10884;SDS011;5495;53.252;10.390;2023-03-01T07:28:51;5.00;;;3.27;;
10884;SDS011;5495;53.252;10.390;2023-03-01T07:46:26;9.37;;;3.57;;
10884;SDS011;5495;53.252;10.390;2023-03-01T07:52:51;6.67;;;3.97;;
10884;SDS011;5495;53.252;10.390;2023-03-01T07:56:23;7.90;;;4.10;;
10884;SDS011;5495;53.252;10.390;2023-03-01T08:02:14;5.20;;;3.63;;
10884;SDS011;5495;53.252;10.390;2023-03-01T08:05:09;10.43;;;3.77;;
10884;SDS011;5495;53.252;10.390;2023-03-01T08:08:05;4.63;;;3.57;;
10884;SDS011;5495;53.252;10.390;2023-03-01T08:10:51;5.73;;;3.40;;
10884;SDS011;5495;53.252;10.390;2023-03-01T08:13:46;6.53;;;3.37;;
10884;SDS011;5495;53.252;10.390;2023-03-01T08:16:20;6.47;;;3.63;;
10884;SDS011;5495;53.252;10.390;2023-03-01T08:22:32;5.13;;;3.33;;
10884;SDS011;5495;53.252;10.390;2023-03-01T08:25:33;6.37;;;3.90;;
10884;SDS011;5495;53.252;10.390;2023-03-01T08:28:03;7.67;;;4.07;;
10884;SDS011;5495;53.252;10.390;2023-03-01T08:30:58;5.10;;;3.30;;
10884;SDS011;5495;53.252;10.390;2023-03-01T08:33:28;5.97;;;3.47;;
10884;SDS011;5495;53.252;10.390;2023-03-01T08:42:29;4.43;;;3.03;;
10884;SDS011;5495;53.252;10.390;2023-03-01T08:45:16;5.77;;;3.27;;
10884;SDS011;5495;53.252;10.390;2023-03-01T08:47:51;6.63;;;2.97;;
10884;SDS011;5495;53.252;10.390;2023-03-01T08:50:24;4.90;;;3.10;;
10884;SDS011;5495;53.252;10.390;2023-03-01T08:53:02;3.87;;;2.63;;
10884;SDS011;5495;53.252;10.390;2023-03-01T08:55:39;5.37;;;3.77;;
10884;SDS011;5495;53.252;10.390;2023-03-01T08:58:17;5.20;;;3.50;;
10884;SDS011;5495;53.252;10.390;2023-03-01T09:01:07;4.80;;;2.97;;
10884;SDS011;5495;53.252;10.390;2023-03-01T09:03:48;5.40;;;2.90;;
10884;SDS011;5495;53.252;10.390;2023-03-01T09:06:38;5.00;;;2.57;;
10884;SDS011;5495;53.252;10.390;2023-03-01T09:09:14;4.50;;;2.53;;
10884;SDS011;5495;53.252;10.390;2023-03-01T09:11:55;4.43;;;2.43;;
10884;SDS011;5495;53.252;10.390;2023-03-01T09:14:30;5.23;;;2.83;;
10884;SDS011;5495;53.252;10.390;2023-03-01T09:17:09;4.03;;;2.43;;
10884;SDS011;5495;53.252;10.390;2023-03-01T09:19:39;4.47;;;2.43;;
10884;SDS011;5495;53.252;10.390;2023-03-01T09:25:26;5.00;;;2.70;;
10884;SDS011;5495;53.252;10.390;2023-03-01T09:35:08;8.00;;;3.57;;
10884;SDS011;5495;53.252;10.390;2023-03-01T09:37:41;8.83;;;4.07;;
10884;SDS011;5495;53.252;10.390;2023-03-01T09:43:15;8.60;;;5.53;;
10884;SDS011;5495;53.252;10.390;2023-03-01T09:48:57;9.43;;;5.87;;
10884;SDS011;5495;53.252;10.390;2023-03-01T09:54:49;8.90;;;4.77;;
10884;SDS011;5495;53.252;10.390;2023-03-01T09:57:38;10.17;;;5.43;;
10884;SDS011;5495;53.252;10.390;2023-03-01T10:00:20;10.07;;;4.97;;
10884;SDS011;5495;53.252;10.390;2023-03-01T10:02:57;8.67;;;5.13;;
10884;SDS011;5495;53.252;10.390;2023-03-01T10:05:42;9.43;;;4.93;;
10884;SDS011;5495;53.252;10.390;2023-03-01T10:08:25;8.70;;;5.50;;
10884;SDS011;5495;53.252;10.390;2023-03-01T10:10:57;9.10;;;5.10;;
10884;SDS011;5495;53.252;10.390;2023-03-01T10:13:26;9.37;;;5.63;;
10884;SDS011;5495;53.252;10.390;2023-03-01T10:16:01;7.63;;;5.13;;
10884;SDS011;5495;53.252;10.390;2023-03-01T10:18:43;10.87;;;5.30;;
10884;SDS011;5495;53.252;10.390;2023-03-01T10:21:17;10.27;;;5.17;;
10884;SDS011;5495;53.252;10.390;2023-03-01T10:23:49;9.87;;;5.33;;
10884;SDS011;5495;53.252;10.390;2023-03-01T10:26:38;8.80;;;5.20;;
10884;SDS011;5495;53.252;10.390;2023-03-01T10:29:13;7.47;;;5.13;;
10884;SDS011;5495;53.252;10.390;2023-03-01T10:31:44;8.57;;;4.87;;
10884;SDS011;5495;53.252;10.390;2023-03-01T10:34:28;9.43;;;4.87;;
10884;SDS011;5495;53.252;10.390;2023-03-01T10:37:01;7.97;;;5.30;;
10884;SDS011;5495;53.252;10.390;2023-03-01T10:42:31;6.97;;;4.33;;
10884;SDS011;5495;53.252;10.390;2023-03-01T10:48:02;8.83;;;4.03;;
10884;SDS011;5495;53.252;10.390;2023-03-01T10:50:39;7.30;;;4.67;;
10884;SDS011;5495;53.252;10.390;2023-03-01T10:56:03;12.57;;;5.10;;
10884;SDS011;5495;53.252;10.390;2023-03-01T10:58:33;13.90;;;6.17;;
10884;SDS011;5495;53.252;10.390;2023-03-01T11:01:24;10.47;;;5.73;;
10884;SDS011;5495;53.252;10.390;2023-03-01T11:04:08;8.37;;;5.90;;
10884;SDS011;5495;53.252;10.390;2023-03-01T11:06:57;9.20;;;5.70;;
10884;SDS011;5495;53.252;10.390;2023-03-01T11:09:31;11.63;;;6.10;;
10884;SDS011;5495;53.252;10.390;2023-03-01T11:12:15;8.87;;;6.10;;
10884;SDS011;5495;53.252;10.390;2023-03-01T11:17:54;10.57;;;6.00;;
10884;SDS011;5495;53.252;10.390;2023-03-01T11:23:33;11.03;;;5.97;;
10884;SDS011;5495;53.252;10.390;2023-03-01T11:26:09;8.60;;;5.90;;
10884;SDS011;5495;53.252;10.390;2023-03-01T11:28:42;11.70;;;6.27;;
10884;SDS011;5495;53.252;10.390;2023-03-01T11:31:38;10.30;;;6.30;;
10884;SDS011;5495;53.252;10.390;2023-03-01T11:34:47;10.80;;;6.03;;
10884;SDS011;5495;53.252;10.390;2023-03-01T11:37:51;10.00;;;6.07;;
10884;SDS011;5495;53.252;10.390;2023-03-01T11:40:29;8.53;;;5.73;;
10884;SDS011;5495;53.252;10.390;2023-03-01T11:43:28;9.07;;;5.83;;
10884;SDS011;5495;53.252;10.390;2023-03-01T11:49:50;7.60;;;5.47;;
10884;SDS011;5495;53.252;10.390;2023-03-01T11:53:07;10.73;;;5.90;;
10884;SDS011;5495;53.252;10.390;2023-03-01T11:56:09;9.83;;;5.90;;
10884;SDS011;5495;53.252;10.390;2023-03-01T11:59:10;6.27;;;5.33;;
10884;SDS011;5495;53.252;10.390;2023-03-01T12:05:35;8.67;;;6.07;;
10884;SDS011;5495;53.252;10.390;2023-03-01T12:08:33;8.77;;;5.93;;
10884;SDS011;5495;53.252;10.390;2023-03-01T12:11:08;6.73;;;5.63;;
10884;SDS011;5495;53.252;10.390;2023-03-01T12:14:02;6.37;;;5.30;;
10884;SDS011;5495;53.252;10.390;2023-03-01T12:17:00;7.10;;;6.10;;
10884;SDS011;5495;53.252;10.390;2023-03-01T12:19:45;10.20;;;6.10;;
10884;SDS011;5495;53.252;10.390;2023-03-01T12:22:37;7.30;;;6.07;;
10884;SDS011;5495;53.252;10.390;2023-03-01T12:25:20;7.43;;;6.20;;
10884;SDS011;5495;53.252;10.390;2023-03-01T12:28:08;7.43;;;6.30;;
10884;SDS011;5495;53.252;10.390;2023-03-01T12:31:06;7.47;;;6.13;;
10884;SDS011;5495;53.252;10.390;2023-03-01T12:33:55;8.77;;;6.10;;
10884;SDS011;5495;53.252;10.390;2023-03-01T12:36:33;7.67;;;6.23;;
10884;SDS011;5495;53.252;10.390;2023-03-01T12:39:34;9.60;;;6.30;;
10884;SDS011;5495;53.252;10.390;2023-03-01T12:42:34;7.40;;;6.60;;
10884;SDS011;5495;53.252;10.390;2023-03-01T12:45:27;8.60;;;6.47;;
10884;SDS011;5495;53.252;10.390;2023-03-01T12:48:18;8.63;;;6.07;;
10884;SDS011;5495;53.252;10.390;2023-03-01T12:50:57;7.00;;;6.20;;
10884;SDS011;5495;53.252;10.390;2023-03-01T12:53:47;9.23;;;7.03;;
10884;SDS011;5495;53.252;10.390;2023-03-01T12:56:23;7.80;;;6.63;;
10884;SDS011;5495;53.252;10.390;2023-03-01T12:58:55;8.37;;;6.63;;
10884;SDS011;5495;53.252;10.390;2023-03-01T13:01:40;9.37;;;7.53;;
10884;SDS011;5495;53.252;10.390;2023-03-01T13:04:16;10.37;;;6.80;;
10884;SDS011;5495;53.252;10.390;2023-03-01T13:06:52;7.90;;;6.37;;
10884;SDS011;5495;53.252;10.390;2023-03-01T13:09:27;8.00;;;6.53;;
10884;SDS011;5495;53.252;10.390;2023-03-01T13:12:03;8.93;;;7.07;;
10884;SDS011;5495;53.252;10.390;2023-03-01T13:14:47;9.70;;;7.40;;
10884;SDS011;5495;53.252;10.390;2023-03-01T13:17:30;11.73;;;7.60;;
10884;SDS011;5495;53.252;10.390;2023-03-01T13:19:59;9.23;;;7.17;;
10884;SDS011;5495;53.252;10.390;2023-03-01T13:22:30;11.50;;;7.27;;
10884;SDS011;5495;53.252;10.390;2023-03-01T13:25:26;11.27;;;7.60;;
10884;SDS011;5495;53.252;10.390;2023-03-01T13:30:58;11.40;;;7.60;;
10884;SDS011;5495;53.252;10.390;2023-03-01T13:33:47;11.87;;;7.33;;
10884;SDS011;5495;53.252;10.390;2023-03-01T13:42:00;11.67;;;7.73;;
10884;SDS011;5495;53.252;10.390;2023-03-01T13:44:29;12.33;;;7.10;;
10884;SDS011;5495;53.252;10.390;2023-03-01T13:47:05;12.10;;;7.57;;
10884;SDS011;5495;53.252;10.390;2023-03-01T13:49:46;9.67;;;6.87;;
10884;SDS011;5495;53.252;10.390;2023-03-01T13:52:35;9.80;;;7.80;;
10884;SDS011;5495;53.252;10.390;2023-03-01T13:55:13;9.07;;;7.07;;
10884;SDS011;5495;53.252;10.390;2023-03-01T13:57:46;8.90;;;6.90;;
10884;SDS011;5495;53.252;10.390;2023-03-01T14:00:30;8.90;;;7.00;;
10884;SDS011;5495;53.252;10.390;2023-03-01T14:03:01;9.73;;;7.17;;
10884;SDS011;5495;53.252;10.390;2023-03-01T14:05:33;10.23;;;7.37;;
10884;SDS011;5495;53.252;10.390;2023-03-01T14:08:04;9.83;;;7.17;;
10884;SDS011;5495;53.252;10.390;2023-03-01T14:10:49;9.73;;;6.83;;
10884;SDS011;5495;53.252;10.390;2023-03-01T14:14:07;9.97;;;6.83;;
10884;SDS011;5495;53.252;10.390;2023-03-01T14:16:57;10.23;;;6.23;;
10884;SDS011;5495;53.252;10.390;2023-03-01T14:19:34;10.23;;;6.93;;
10884;SDS011;5495;53.252;10.390;2023-03-01T14:22:05;11.47;;;6.93;;
10884;SDS011;5495;53.252;10.390;2023-03-01T14:24:44;10.17;;;6.80;;
10884;SDS011;5495;53.252;10.390;2023-03-01T14:27:25;11.50;;;6.63;;
10884;SDS011;5495;53.252;10.390;2023-03-01T14:30:03;9.67;;;7.00;;
10884;SDS011;5495;53.252;10.390;2023-03-01T14:32:38;9.10;;;6.77;;
10884;SDS011;5495;53.252;10.390;2023-03-01T14:35:19;9.80;;;7.40;;
10884;SDS011;5495;53.252;10.390;2023-03-01T14:37:48;9.67;;;7.30;;
10884;SDS011;5495;53.252;10.390;2023-03-01T14:40:28;9.07;;;6.50;;
10884;SDS011;5495;53.252;10.390;2023-03-01T14:43:08;9.20;;;6.67;;
10884;SDS011;5495;53.252;10.390;2023-03-01T14:45:39;9.03;;;6.30;;
10884;SDS011;5495;53.252;10.390;2023-03-01T14:48:18;8.20;;;6.43;;
10884;SDS011;5495;53.252;10.390;2023-03-01T14:50:50;9.47;;;6.70;;
10884;SDS011;5495;53.252;10.390;2023-03-01T14:53:21;10.83;;;6.90;;
10884;SDS011;5495;53.252;10.390;2023-03-01T14:55:51;9.40;;;6.90;;
10884;SDS011;5495;53.252;10.390;2023-03-01T14:58:21;10.80;;;7.63;;
10884;SDS011;5495;53.252;10.390;2023-03-01T15:01:15;9.17;;;6.70;;
10884;SDS011;5495;53.252;10.390;2023-03-01T15:03:45;9.73;;;7.20;;
10884;SDS011;5495;53.252;10.390;2023-03-01T15:06:18;10.07;;;7.37;;
10884;SDS011;5495;53.252;10.390;2023-03-01T15:08:47;9.53;;;6.63;;
10884;SDS011;5495;53.252;10.390;2023-03-01T15:11:19;10.90;;;7.37;;
10884;SDS011;5495;53.252;10.390;2023-03-01T15:13:51;13.67;;;7.33;;
10884;SDS011;5495;53.252;10.390;2023-03-01T15:16:25;8.47;;;6.37;;
10884;SDS011;5495;53.252;10.390;2023-03-01T15:19:16;9.70;;;6.67;;
10884;SDS011;5495;53.252;10.390;2023-03-01T15:22:00;8.70;;;6.63;;
10884;SDS011;5495;53.252;10.390;2023-03-01T15:24:37;12.10;;;6.80;;
10884;SDS011;5495;53.252;10.390;2023-03-01T15:27:13;8.57;;;6.80;;
10884;SDS011;5495;53.252;10.390;2023-03-01T15:29:47;8.33;;;6.60;;
10884;SDS011;5495;53.252;10.390;2023-03-01T15:32:32;9.83;;;6.60;;
10884;SDS011;5495;53.252;10.390;2023-03-01T15:35:32;11.37;;;7.63;;
10884;SDS011;5495;53.252;10.390;2023-03-01T15:41:04;9.10;;;6.33;;
10884;SDS011;5495;53.252;10.390;2023-03-01T15:43:52;8.67;;;6.47;;
10884;SDS011;5495;53.252;10.390;2023-03-01T15:46:24;9.43;;;6.73;;
10884;SDS011;5495;53.252;10.390;2023-03-01T15:49:21;9.70;;;6.77;;
10884;SDS011;5495;53.252;10.390;2023-03-01T15:52:11;9.73;;;6.60;;
10884;SDS011;5495;53.252;10.390;2023-03-01T15:54:57;11.63;;;6.93;;
10884;SDS011;5495;53.252;10.390;2023-03-01T15:57:27;7.80;;;6.50;;
10884;SDS011;5495;53.252;10.390;2023-03-01T15:59:56;8.10;;;5.97;;
10884;SDS011;5495;53.252;10.390;2023-03-01T16:02:40;9.40;;;6.07;;
10884;SDS011;5495;53.252;10.390;2023-03-01T16:05:18;9.73;;;6.17;;
10884;SDS011;5495;53.252;10.390;2023-03-01T16:07:59;8.30;;;5.87;;
10884;SDS011;5495;53.252;10.390;2023-03-01T16:10:28;10.13;;;5.87;;
10884;SDS011;5495;53.252;10.390;2023-03-01T16:12:59;8.53;;;5.60;;
10884;SDS011;5495;53.252;10.390;2023-03-01T16:15:36;9.33;;;5.67;;
10884;SDS011;5495;53.252;10.390;2023-03-01T16:18:06;10.53;;;5.13;;
10884;SDS011;5495;53.252;10.390;2023-03-01T16:20:42;9.63;;;6.23;;
10884;SDS011;5495;53.252;10.390;2023-03-01T16:23:13;8.17;;;5.77;;
10884;SDS011;5495;53.252;10.390;2023-03-01T16:25:44;8.17;;;5.90;;
10884;SDS011;5495;53.252;10.390;2023-03-01T16:28:14;12.63;;;9.90;;
10884;SDS011;5495;53.252;10.390;2023-03-01T16:30:55;11.73;;;7.10;;
10884;SDS011;5495;53.252;10.390;2023-03-01T16:33:29;9.40;;;6.70;;
10884;SDS011;5495;53.252;10.390;2023-03-01T16:36:09;9.20;;;5.93;;
10884;SDS011;5495;53.252;10.390;2023-03-01T16:38:38;10.47;;;5.87;;
10884;SDS011;5495;53.252;10.390;2023-03-01T16:41:11;7.33;;;5.33;;
10884;SDS011;5495;53.252;10.390;2023-03-01T16:43:43;8.80;;;5.70;;
10884;SDS011;5495;53.252;10.390;2023-03-01T16:46:12;10.27;;;5.13;;
10884;SDS011;5495;53.252;10.390;2023-03-01T16:48:50;8.43;;;5.53;;
10884;SDS011;5495;53.252;10.390;2023-03-01T16:51:20;10.67;;;6.07;;
10884;SDS011;5495;53.252;10.390;2023-03-01T16:54:05;8.67;;;5.57;;
10884;SDS011;5495;53.252;10.390;2023-03-01T16:56:57;10.50;;;5.77;;
10884;SDS011;5495;53.252;10.390;2023-03-01T16:59:32;11.00;;;6.43;;
10884;SDS011;5495;53.252;10.390;2023-03-01T17:02:19;9.27;;;6.47;;
10884;SDS011;5495;53.252;10.390;2023-03-01T17:08:26;10.60;;;5.67;;
10884;SDS011;5495;53.252;10.390;2023-03-01T17:20:07;8.97;;;6.13;;
10884;SDS011;5495;53.252;10.390;2023-03-01T17:26:28;8.47;;;5.77;;
10884;SDS011;5495;53.252;10.390;2023-03-01T17:49:34;7.83;;;4.23;;
10884;SDS011;5495;53.252;10.390;2023-03-01T17:52:11;8.23;;;4.90;;
10884;SDS011;5495;53.252;10.390;2023-03-01T17:54:42;8.00;;;4.53;;
10884;SDS011;5495;53.252;10.390;2023-03-01T17:57:53;7.63;;;5.17;;
10884;SDS011;5495;53.252;10.390;2023-03-01T18:12:44;8.90;;;5.70;;
10884;SDS011;5495;53.252;10.390;2023-03-01T18:27:12;14.70;;;9.30;;
10884;SDS011;5495;53.252;10.390;2023-03-01T18:29:41;17.73;;;10.77;;
10884;SDS011;5495;53.252;10.390;2023-03-01T18:36:14;15.07;;;10.60;;
10884;SDS011;5495;53.252;10.390;2023-03-01T18:39:49;18.27;;;11.10;;
10884;SDS011;5495;53.252;10.390;2023-03-01T18:43:08;20.17;;;13.03;;
10884;SDS011;5495;53.252;10.390;2023-03-01T18:46:03;17.47;;;11.87;;
10884;SDS011;5495;53.252;10.390;2023-03-01T18:52:49;20.47;;;13.50;;
10884;SDS011;5495;53.252;10.390;2023-03-01T19:06:15;24.07;;;14.33;;
10884;SDS011;5495;53.252;10.390;2023-03-01T19:16:01;25.03;;;17.13;;
10884;SDS011;5495;53.252;10.390;2023-03-01T19:22:37;30.10;;;17.93;;
10884;SDS011;5495;53.252;10.390;2023-03-01T19:25:15;27.70;;;18.13;;
10884;SDS011;5495;53.252;10.390;2023-03-01T19:27:53;29.30;;;18.10;;
10884;SDS011;5495;53.252;10.390;2023-03-01T19:30:30;26.37;;;17.43;;
10884;SDS011;5495;53.252;10.390;2023-03-01T19:33:30;26.63;;;16.73;;
10884;SDS011;5495;53.252;10.390;2023-03-01T19:36:27;26.03;;;16.53;;
10884;SDS011;5495;53.252;10.390;2023-03-01T19:39:15;27.63;;;17.67;;
10884;SDS011;5495;53.252;10.390;2023-03-01T19:41:45;28.53;;;18.67;;
10884;SDS011;5495;53.252;10.390;2023-03-01T19:44:15;30.00;;;18.63;;
10884;SDS011;5495;53.252;10.390;2023-03-01T19:46:46;28.80;;;18.17;;
10884;SDS011;5495;53.252;10.390;2023-03-01T19:49:25;30.73;;;19.67;;
10884;SDS011;5495;53.252;10.390;2023-03-01T19:52:02;32.93;;;19.20;;
10884;SDS011;5495;53.252;10.390;2023-03-01T19:54:50;31.87;;;18.40;;
10884;SDS011;5495;53.252;10.390;2023-03-01T19:57:22;29.17;;;19.23;;
10884;SDS011;5495;53.252;10.390;2023-03-01T19:59:59;40.57;;;20.37;;
10884;SDS011;5495;53.252;10.390;2023-03-01T20:02:27;35.10;;;18.23;;
10884;SDS011;5495;53.252;10.390;2023-03-01T20:05:03;36.83;;;20.23;;
10884;SDS011;5495;53.252;10.390;2023-03-01T20:07:44;30.67;;;18.60;;
10884;SDS011;5495;53.252;10.390;2023-03-01T20:10:46;27.17;;;16.80;;
10884;SDS011;5495;53.252;10.390;2023-03-01T20:13:15;33.40;;;18.97;;
10884;SDS011;5495;53.252;10.390;2023-03-01T20:15:45;30.50;;;17.27;;
10884;SDS011;5495;53.252;10.390;2023-03-01T20:18:16;34.83;;;19.10;;
10884;SDS011;5495;53.252;10.390;2023-03-01T20:20:59;34.80;;;19.57;;
10884;SDS011;5495;53.252;10.390;2023-03-01T20:23:30;29.17;;;17.73;;
10884;SDS011;5495;53.252;10.390;2023-03-01T20:26:05;32.47;;;18.63;;
10884;SDS011;5495;53.252;10.390;2023-03-01T20:28:55;27.67;;;17.63;;
10884;SDS011;5495;53.252;10.390;2023-03-01T20:31:41;39.67;;;20.00;;
10884;SDS011;5495;53.252;10.390;2023-03-01T20:34:35;26.67;;;17.17;;
10884;SDS011;5495;53.252;10.390;2023-03-01T20:37:15;29.57;;;17.37;;
10884;SDS011;5495;53.252;10.390;2023-03-01T20:39:53;44.37;;;18.30;;
10884;SDS011;5495;53.252;10.390;2023-03-01T20:45:45;25.33;;;15.40;;
10884;SDS011;5495;53.252;10.390;2023-03-01T20:48:32;36.57;;;19.67;;
10884;SDS011;5495;53.252;10.390;2023-03-01T20:51:50;38.10;;;18.03;;
10884;SDS011;5495;53.252;10.390;2023-03-01T20:54:27;33.67;;;18.53;;
10884;SDS011;5495;53.252;10.390;2023-03-01T20:57:06;34.83;;;19.33;;
10884;SDS011;5495;53.252;10.390;2023-03-01T21:00:31;47.00;;;20.00;;
10884;SDS011;5495;53.252;10.390;2023-03-01T21:03:25;33.10;;;17.80;;
10884;SDS011;5495;53.252;10.390;2023-03-01T21:06:02;29.57;;;16.00;;
10884;SDS011;5495;53.252;10.390;2023-03-01T21:08:34;27.53;;;16.93;;
10884;SDS011;5495;53.252;10.390;2023-03-01T21:11:06;40.83;;;23.00;;
10884;SDS011;5495;53.252;10.390;2023-03-01T21:13:35;22.83;;;15.13;;
10884;SDS011;5495;53.252;10.390;2023-03-01T21:16:11;22.73;;;14.70;;
10884;SDS011;5495;53.252;10.390;2023-03-01T21:18:50;25.37;;;15.47;;
10884;SDS011;5495;53.252;10.390;2023-03-01T21:22:01;30.87;;;17.93;;
10884;SDS011;5495;53.252;10.390;2023-03-01T21:25:05;24.80;;;14.50;;
10884;SDS011;5495;53.252;10.390;2023-03-01T21:27:36;23.10;;;14.10;;
10884;SDS011;5495;53.252;10.390;2023-03-01T21:30:10;24.57;;;13.93;;
10884;SDS011;5495;53.252;10.390;2023-03-01T21:32:55;21.47;;;14.37;;
10884;SDS011;5495;53.252;10.390;2023-03-01T21:38:36;26.47;;;14.77;;
10884;SDS011;5495;53.252;10.390;2023-03-01T21:41:19;24.53;;;15.10;;
10884;SDS011;5495;53.252;10.390;2023-03-01T21:43:50;42.67;;;17.53;;
10884;SDS011;5495;53.252;10.390;2023-03-01T21:46:31;31.83;;;15.07;;
10884;SDS011;5495;53.252;10.390;2023-03-01T21:49:15;46.03;;;16.17;;
10884;SDS011;5495;53.252;10.390;2023-03-01T21:51:47;26.33;;;16.73;;
10884;SDS011;5495;53.252;10.390;2023-03-01T21:54:16;28.63;;;15.43;;
10884;SDS011;5495;53.252;10.390;2023-03-01T21:56:53;34.57;;;15.80;;
10884;SDS011;5495;53.252;10.390;2023-03-01T21:59:26;21.90;;;13.90;;
10884;SDS011;5495;53.252;10.390;2023-03-01T22:01:54;26.50;;;15.43;;
10884;SDS011;5495;53.252;10.390;2023-03-01T22:04:40;24.97;;;15.37;;
10884;SDS011;5495;53.252;10.390;2023-03-01T22:07:08;24.97;;;14.80;;
10884;SDS011;5495;53.252;10.390;2023-03-01T22:09:44;22.87;;;14.10;;
10884;SDS011;5495;53.252;10.390;2023-03-01T22:12:16;21.20;;;13.60;;
10884;SDS011;5495;53.252;10.390;2023-03-01T22:15:02;22.50;;;13.93;;
10884;SDS011;5495;53.252;10.390;2023-03-01T22:17:35;30.10;;;16.83;;
10884;SDS011;5495;53.252;10.390;2023-03-01T22:20:06;28.60;;;15.37;;
10884;SDS011;5495;53.252;10.390;2023-03-01T22:22:47;21.00;;;13.83;;
10884;SDS011;5495;53.252;10.390;2023-03-01T22:25:15;49.40;;;21.43;;
10884;SDS011;5495;53.252;10.390;2023-03-01T22:27:43;26.40;;;16.63;;
10884;SDS011;5495;53.252;10.390;2023-03-01T22:30:15;26.60;;;14.30;;
10884;SDS011;5495;53.252;10.390;2023-03-01T22:32:48;25.67;;;14.50;;
10884;SDS011;5495;53.252;10.390;2023-03-01T22:35:36;28.03;;;14.17;;
10884;SDS011;5495;53.252;10.390;2023-03-01T22:38:09;34.60;;;13.70;;
10884;SDS011;5495;53.252;10.390;2023-03-01T22:40:54;25.70;;;14.27;;
10884;SDS011;5495;53.252;10.390;2023-03-01T22:43:25;27.30;;;14.93;;
10884;SDS011;5495;53.252;10.390;2023-03-01T22:45:54;31.73;;;14.40;;
10884;SDS011;5495;53.252;10.390;2023-03-01T22:48:22;21.97;;;13.70;;
10884;SDS011;5495;53.252;10.390;2023-03-01T22:50:54;31.67;;;14.10;;
10884;SDS011;5495;53.252;10.390;2023-03-01T22:53:27;25.23;;;14.33;;
10884;SDS011;5495;53.252;10.390;2023-03-01T22:55:54;26.67;;;13.27;;
10884;SDS011;5495;53.252;10.390;2023-03-01T22:58:24;26.33;;;13.50;;
10884;SDS011;5495;53.252;10.390;2023-03-01T23:00:54;21.30;;;12.20;;
10884;SDS011;5495;53.252;10.390;2023-03-01T23:03:38;16.97;;;11.03;;
10884;SDS011;5495;53.252;10.390;2023-03-01T23:06:08;34.93;;;11.77;;
10884;SDS011;5495;53.252;10.390;2023-03-01T23:08:36;18.00;;;10.80;;
10884;SDS011;5495;53.252;10.390;2023-03-01T23:11:08;33.07;;;12.10;;
10884;SDS011;5495;53.252;10.390;2023-03-01T23:13:40;18.83;;;10.40;;
10884;SDS011;5495;53.252;10.390;2023-03-01T23:16:09;18.53;;;10.83;;
10884;SDS011;5495;53.252;10.390;2023-03-01T23:18:38;25.17;;;11.50;;
10884;SDS011;5495;53.252;10.390;2023-03-01T23:21:16;16.67;;;12.00;;
10884;SDS011;5495;53.252;10.390;2023-03-01T23:24:01;19.73;;;10.43;;
10884;SDS011;5495;53.252;10.390;2023-03-01T23:26:30;17.40;;;10.20;;